Dunns Hill, Australia
Current Conditions -  °F | °C
As of 9:00 PM on Thursday 29 Jan 2015 (Local Time) from YMEN Reporting Station
Scattered Clouds Scattered Clouds  
Wind Chill: 63°   Ceiling: Unl
Heat Index: 63°   Visibility: 6mi
Dew Point: 48°   Wind: 15mph
Humidity: 59%   Direction: 140°SE
Pressure: 30.06"   Gusts: NA
Location:  37.88°S, 145.33°E
Report Text: YMEN 291000Z AUTO 14013KT 9999 // SCT039 17/09 Q1018
Loading
Personal Weather Stations






























Interactive Weather Map New forecast layout! Learn more

10-Day Weather Forecast

Advertisements
Track Severe Weather on mobile